Time;durP1;ratioP1;P1;durP2;ratioP2;P2;SDS_P1;SDS_P2;PMS_P1;PMS_P2;Temp;Humidity;BMP_temperature;BMP_pressure;BME280_temperature;BME280_humidity;BME280_pressure;Samples;Min_cycle;Max_cycle;Signal;HPM_P1;HPM_P2
2021/07/16 00:00:58;;;;;;;3.70;1.77;;;19.20;95.30;;;;;;5053197;28;20453;-79
2021/07/16 00:03:26;;;;;;;1.40;1.30;;;19.20;1.00;;;;;;5054944;28;20479;-81
2021/07/16 00:05:55;;;;;;;2.13;1.80;;;19.20;1.00;;;;;;5043270;28;20451;-79
2021/07/16 00:08:23;;;;;;;2.00;1.90;;;19.20;99.90;;;;;;5061848;28;20475;-79
2021/07/16 00:10:51;;;;;;;1.70;1.60;;;19.20;99.90;;;;;;5052932;28;20440;-79
2021/07/16 00:13:20;;;;;;;1.87;1.77;;;19.20;99.90;;;;;;5045167;28;20464;-79
2021/07/16 00:15:48;;;;;;;1.63;1.53;;;19.20;99.90;;;;;;5053331;28;20471;-79
2021/07/16 00:18:17;;;;;;;2.00;1.80;;;19.20;99.90;;;;;;5049498;28;20483;-78
2021/07/16 00:20:47;;;;;;;1.70;1.60;;;19.10;1.00;;;;;;5050925;28;20549;-79
2021/07/16 00:23:15;;;;;;;1.70;1.60;;;19.10;1.00;;;;;;5039536;28;20513;-78
2021/07/16 00:25:44;;;;;;;1.93;1.73;;;19.10;99.90;;;;;;5049187;28;20461;-78
2021/07/16 00:28:12;;;;;;;1.67;1.57;;;19.10;10.80;;;;;;5047771;28;20479;-79
2021/07/16 00:30:40;;;;;;;1.73;1.63;;;19.10;99.90;;;;;;5053902;28;20439;-79
2021/07/16 00:33:08;;;;;;;2.03;1.93;;;19.10;1.00;;;;;;5053701;28;20535;-78
2021/07/16 00:35:37;;;;;;;1.70;1.60;;;19.10;99.90;;;;;;5063530;28;20475;-79
2021/07/16 00:38:05;;;;;;;1.80;1.50;;;19.00;99.90;;;;;;5048387;28;20498;-79
2021/07/16 00:40:34;;;;;;;1.50;1.40;;;19.00;99.90;;;;;;5044559;28;20467;-79
2021/07/16 00:43:02;;;;;;;3.53;2.13;;;19.00;99.90;;;;;;5058043;28;20839;-79
2021/07/16 00:45:30;;;;;;;2.10;1.80;;;19.00;99.90;;;;;;5050668;28;20541;-79
2021/07/16 00:47:59;;;;;;;2.10;1.90;;;19.00;1.00;;;;;;5048461;28;20529;-79
2021/07/16 00:50:30;;;;;;;2.17;1.97;;;19.00;1.00;;;;;;5052704;28;20446;-79
2021/07/16 00:53:00;;;;;;;2.00;1.90;;;18.90;99.90;;;;;;5048850;28;20997;-80
2021/07/16 00:55:30;;;;;;;1.60;1.50;;;18.90;99.90;;;;;;5050274;28;20455;-80
2021/07/16 00:57:59;;;;;;;2.40;2.20;;;18.90;18.00;;;;;;5050907;28;20467;-79
2021/07/16 01:00:27;;;;;;;2.03;1.93;;;18.90;99.90;;;;;;5053059;28;20482;-79
2021/07/16 01:02:56;;;;;;;2.03;1.60;;;18.90;20.20;;;;;;5051471;28;20634;-78
2021/07/16 01:05:25;;;;;;;2.70;1.90;;;18.90;1.00;;;;;;5058129;28;20538;-79
2021/07/16 01:07:53;;;;;;;2.03;1.70;;;18.90;13.80;;;;;;5054392;28;20482;-77
2021/07/16 01:10:23;;;;;;;1.83;1.73;;;18.90;99.90;;;;;;5048307;28;20509;-79
2021/07/16 01:12:53;;;;;;;1.70;1.60;;;18.90;99.90;;;;;;5044372;28;20515;-79
2021/07/16 01:15:23;;;;;;;3.40;1.60;;;18.90;1.00;;;;;;5055092;28;20446;-78
2021/07/16 01:17:52;;;;;;;2.67;2.00;;;18.90;1.00;;;;;;5050517;28;20491;-78
2021/07/16 01:20:22;;;;;;;2.13;1.90;;;18.90;1.00;;;;;;5039810;28;20848;-78
2021/07/16 01:22:51;;;;;;;2.60;1.90;;;18.90;99.90;;;;;;5052692;28;20455;-78
2021/07/16 01:25:23;;;;;;;2.13;1.70;;;18.90;99.90;;;;;;5051744;28;20870;-79
2021/07/16 01:27:55;;;;;;;2.03;1.60;;;18.90;99.90;;;;;;5055392;28;20471;-80
2021/07/16 01:30:25;;;;;;;2.10;1.83;;;18.90;31.10;;;;;;5040941;28;20452;-79
2021/07/16 01:32:54;;;;;;;2.70;1.60;;;18.90;7.50;;;;;;5059162;28;20459;-78
2021/07/16 01:35:25;;;;;;;2.13;1.90;;;18.90;1.00;;;;;;5068715;28;20439;-80
2021/07/16 01:37:53;;;;;;;2.00;1.80;;;18.80;1.00;;;;;;5037578;28;20472;-79
2021/07/16 01:40:24;;;;;;;2.30;1.50;;;18.80;1.00;;;;;;5069070;28;20482;-79
2021/07/16 01:42:54;;;;;;;2.20;1.80;;;18.80;1.00;;;;;;5050842;28;20463;-80
2021/07/16 01:45:24;;;;;;;3.00;1.60;;;18.80;99.90;;;;;;5057179;28;20458;-80
2021/07/16 01:47:55;;;;;;;2.33;2.13;;;18.80;99.90;;;;;;5066458;28;20488;-80
2021/07/16 01:50:23;;;;;;;2.07;1.63;;;18.80;99.90;;;;;;5061359;28;20453;-79
2021/07/16 01:52:52;;;;;;;2.30;1.57;;;18.70;1.00;;;;;;5054365;28;20455;-79
2021/07/16 01:55:23;;;;;;;2.63;1.50;;;18.70;99.90;;;;;;5049025;28;20513;-80
2021/07/16 01:57:52;;;;;;;2.30;1.70;;;18.60;1.00;;;;;;5060405;28;20474;-79
2021/07/16 02:00:23;;;;;;;3.50;2.37;;;18.60;99.90;;;;;;5060414;28;20563;-80
2021/07/16 02:02:53;;;;;;;2.40;2.20;;;18.60;99.90;;;;;;5053101;28;20513;-78
2021/07/16 02:05:22;;;;;;;2.83;2.27;;;18.60;99.90;;;;;;5057588;28;20504;-79
2021/07/16 02:07:51;;;;;;;5.30;2.50;;;18.70;1.00;;;;;;5059986;28;20833;-79
2021/07/16 02:10:22;;;;;;;2.47;2.27;;;18.70;1.00;;;;;;5057015;28;20860;-78
2021/07/16 02:12:50;;;;;;;2.00;1.90;;;18.70;99.90;;;;;;5049920;28;20459;-79
2021/07/16 02:15:21;;;;;;;8.10;2.47;;;18.70;99.90;;;;;;5048562;28;20452;-79
2021/07/16 02:17:49;;;;;;;1.77;1.67;;;18.60;1.00;;;;;;5052117;28;20462;-77
2021/07/16 02:20:23;;;;;;;1.67;1.57;;;18.60;99.90;;;;;;5051339;28;21005;-77
2021/07/16 02:22:53;;;;;;;3.73;2.33;;;18.60;99.90;;;;;;5044230;28;20454;-77
2021/07/16 02:25:24;;;;;;;2.00;1.80;;;18.60;1.00;;;;;;5048287;28;20493;-77
2021/07/16 02:27:55;;;;;;;2.67;1.67;;;18.60;1.00;;;;;;5058712;28;20498;-76
2021/07/16 02:30:25;;;;;;;2.40;1.63;;;18.60;1.00;;;;;;5051941;28;20443;-78
2021/07/16 02:32:54;;;;;;;1.83;1.73;;;18.60;1.00;;;;;;5060924;28;20843;-77
2021/07/16 02:35:22;;;;;;;1.90;1.80;;;18.60;10.10;;;;;;5052032;28;20509;-78
2021/07/16 02:37:50;;;;;;;2.03;1.93;;;18.60;1.00;;;;;;5050047;28;20537;-78
2021/07/16 02:40:19;;;;;;;3.00;1.50;;;18.60;1.00;;;;;;5054067;28;20464;-78
2021/07/16 02:42:49;;;;;;;2.00;1.53;;;18.60;1.00;;;;;;5053390;28;20490;-79
2021/07/16 02:45:18;;;;;;;2.47;2.27;;;18.60;1.00;;;;;;5051019;28;20459;-78
2021/07/16 02:47:47;;;;;;;1.80;1.70;;;18.50;1.00;;;;;;5050488;28;20507;-77
2021/07/16 02:50:18;;;;;;;2.27;2.17;;;18.60;1.00;;;;;;5053199;28;20447;-79
2021/07/16 02:52:46;;;;;;;3.50;2.23;;;18.60;99.90;;;;;;5048660;28;20452;-78
2021/07/16 02:55:14;;;;;;;2.07;1.97;;;18.60;1.00;;;;;;5052190;28;20472;-78
2021/07/16 02:57:42;;;;;;;1.80;1.70;;;18.60;1.00;;;;;;5068105;28;20543;-79
2021/07/16 03:00:16;;;;;;;3.33;1.97;;;18.60;1.00;;;;;;5057196;28;20470;-78
2021/07/16 03:02:45;;;;;;;1.80;1.70;;;18.50;99.90;;;;;;5059881;28;20472;-78
2021/07/16 03:05:16;;;;;;;2.47;1.77;;;18.50;35.20;;;;;;5053399;28;20489;-78
2021/07/16 03:07:45;;;;;;;2.30;2.10;;;18.50;1.00;;;;;;5069429;28;20478;-79
2021/07/16 03:10:15;;;;;;;3.40;2.30;;;18.50;1.00;;;;;;5054924;28;20454;-80
2021/07/16 03:12:43;;;;;;;2.47;2.27;;;18.50;1.00;;;;;;5062026;28;20455;-78
2021/07/16 03:15:16;;;;;;;2.80;2.60;;;18.50;99.90;;;;;;5054407;28;20547;-78
2021/07/16 03:17:45;;;;;;;2.40;2.20;;;18.50;99.90;;;;;;5050193;28;20541;-78
2021/07/16 03:20:15;;;;;;;2.33;2.13;;;18.40;1.00;;;;;;5051930;28;20454;-79
2021/07/16 03:22:43;;;;;;;1.67;1.57;;;18.30;99.90;;;;;;5052120;28;20509;-78
2021/07/16 03:25:14;;;;;;;5.23;2.47;;;18.30;1.00;;;;;;5050479;28;20529;-80
2021/07/16 03:27:42;;;;;;;3.57;2.50;;;18.30;1.00;;;;;;5056477;28;20529;-78
2021/07/16 03:30:14;;;;;;;2.07;1.97;;;18.40;99.90;;;;;;5042149;28;21129;-78
2021/07/16 03:32:43;;;;;;;2.50;2.30;;;18.40;36.90;;;;;;5052476;28;20447;-77
2021/07/16 03:35:13;;;;;;;2.83;2.07;;;18.40;99.90;;;;;;5045226;28;20909;-78
2021/07/16 03:37:42;;;;;;;3.77;1.97;;;18.40;99.90;;;;;;5043850;28;21026;-78
2021/07/16 03:40:13;;;;;;;2.00;1.90;;;18.50;99.90;;;;;;5050526;28;21166;-78
2021/07/16 03:42:42;;;;;;;2.77;2.00;;;18.40;29.50;;;;;;5061456;28;20529;-78
2021/07/16 03:45:14;;;;;;;1.97;1.83;;;18.40;1.00;;;;;;5057584;28;20524;-77
2021/07/16 03:47:43;;;;;;;2.87;2.23;;;18.40;99.90;;;;;;5047814;28;20471;-78
2021/07/16 03:50:12;;;;;;;2.10;1.90;;;18.40;99.90;;;;;;5050055;28;20512;-77
2021/07/16 03:52:41;;;;;;;3.17;2.47;;;18.40;87.20;;;;;;5051170;28;20483;-80
2021/07/16 03:55:10;;;;;;;2.13;2.00;;;18.50;49.10;;;;;;5049953;28;20950;-79
2021/07/16 03:57:42;;;;;;;5.43;2.37;;;18.50;1.00;;;;;;5045661;28;20473;-80
2021/07/16 04:00:14;;;;;;;3.50;2.33;;;18.40;32.90;;;;;;5050935;28;20459;-80
2021/07/16 04:02:43;;;;;;;3.23;1.93;;;18.50;99.90;;;;;;5054407;28;20479;-79
2021/07/16 04:05:12;;;;;;;2.30;2.10;;;18.50;62.10;;;;;;5063975;28;20472;-79
2021/07/16 04:07:49;;;;;;;2.87;2.20;;;18.50;21.90;;;;;;5049092;28;20475;-79
2021/07/16 04:10:20;;;;;;;2.90;1.90;;;18.50;1.00;;;;;;5067668;28;20853;-79
2021/07/16 04:12:53;;;;;;;3.57;2.10;;;18.50;99.90;;;;;;5067096;28;20439;-79
2021/07/16 04:15:24;;;;;;;2.10;2.00;;;18.50;99.90;;;;;;5056349;28;20447;-80
2021/07/16 04:17:52;;;;;;;2.00;1.90;;;18.50;99.90;;;;;;5050633;28;20470;-79
2021/07/16 04:20:20;;;;;;;2.07;1.87;;;18.50;99.90;;;;;;5048748;28;20501;-81
2021/07/16 04:22:48;;;;;;;3.53;2.00;;;18.50;99.90;;;;;;5058627;28;20479;-79
2021/07/16 04:25:19;;;;;;;5.67;2.00;;;18.50;1.00;;;;;;5061245;28;20577;-80
2021/07/16 04:27:48;;;;;;;2.33;2.13;;;18.50;99.90;;;;;;5052232;28;20463;-82
2021/07/16 04:30:18;;;;;;;2.10;1.90;;;18.40;99.90;;;;;;5051186;28;20525;-79
2021/07/16 04:32:49;;;;;;;2.40;2.20;;;18.50;99.90;;;;;;5061823;28;20450;-79
2021/07/16 04:35:17;;;;;;;2.60;2.40;;;18.50;99.90;;;;;;5052377;28;20462;-80
2021/07/16 04:37:46;;;;;;;1.60;1.50;;;18.50;99.90;;;;;;5050572;28;20468;-79
2021/07/16 04:40:19;;;;;;;4.33;2.43;;;18.50;1.00;;;;;;5038759;28;20443;-78
2021/07/16 04:42:48;;;;;;;2.17;2.00;;;18.50;99.90;;;;;;5051695;28;21008;-81
2021/07/16 04:45:17;;;;;;;3.47;1.93;;;18.50;73.10;;;;;;5036260;28;20943;-79
2021/07/16 04:47:46;;;;;;;2.87;2.67;;;18.50;1.00;;;;;;5056915;28;21008;-82
2021/07/16 04:50:17;;;;;;;2.60;2.23;;;18.60;1.00;;;;;;5069381;28;20453;-81
2021/07/16 04:52:46;;;;;;;2.50;2.30;;;18.50;84.00;;;;;;5036215;28;20459;-82
2021/07/16 04:55:15;;;;;;;2.60;2.10;;;18.60;1.00;;;;;;5054409;28;20458;-79
2021/07/16 04:57:44;;;;;;;2.83;2.43;;;18.60;1.00;;;;;;5058030;28;21176;-79
2021/07/16 05:00:13;;;;;;;2.33;2.20;;;18.60;1.00;;;;;;5038345;28;20479;-81
2021/07/16 05:02:41;;;;;;;6.90;3.20;;;18.60;1.00;;;;;;5045632;28;20488;-78
2021/07/16 05:05:11;;;;;;;3.30;3.00;;;18.60;99.90;;;;;;5050717;28;20458;-77
2021/07/16 05:07:40;;;;;;;2.67;2.47;;;18.40;99.90;;;;;;5046790;28;20483;-79
2021/07/16 05:10:11;;;;;;;3.60;3.30;;;18.30;99.90;;;;;;5050053;28;20534;-79
2021/07/16 05:12:40;;;;;;;2.80;2.53;;;18.30;1.00;;;;;;5046512;28;20447;-79
2021/07/16 05:15:10;;;;;;;3.10;2.80;;;18.30;99.90;;;;;;5045775;28;20470;-78
2021/07/16 05:17:39;;;;;;;3.60;3.30;;;18.30;99.90;;;;;;5051900;28;20479;-81
2021/07/16 05:20:08;;;;;;;3.50;2.70;;;18.30;99.90;;;;;;5055608;28;20455;-81
2021/07/16 05:22:37;;;;;;;3.40;3.13;;;18.50;1.00;;;;;;5049504;28;20517;-82
2021/07/16 05:25:08;;;;;;;3.67;3.37;;;18.50;77.60;;;;;;5050693;28;20459;-80
2021/07/16 05:27:38;;;;;;;3.20;2.90;;;18.60;1.00;;;;;;5047994;28;20533;-79
2021/07/16 05:30:07;;;;;;;4.10;3.80;;;18.70;1.00;;;;;;5033447;28;20441;-78
2021/07/16 05:32:36;;;;;;;3.70;3.03;;;18.70;1.00;;;;;;5050508;28;20436;-80
2021/07/16 05:35:04;;;;;;;3.63;3.33;;;18.70;52.90;;;;;;5046750;28;20460;-79
2021/07/16 05:37:32;;;;;;;4.13;3.53;;;18.70;1.00;;;;;;5043664;28;20551;-81
2021/07/16 05:40:01;;;;;;;3.43;2.90;;;18.70;31.30;;;;;;5057864;28;20447;-79
2021/07/16 05:42:31;;;;;;;4.53;4.13;;;18.70;4.70;;;;;;5048845;28;20486;-83
2021/07/16 05:44:59;;;;;;;4.00;3.53;;;18.80;84.70;;;;;;5065940;28;20583;-80
2021/07/16 05:47:28;;;;;;;4.47;3.07;;;18.80;99.90;;;;;;5045702;28;20524;-79
2021/07/16 05:49:56;;;;;;;4.30;3.90;;;18.80;99.90;;;;;;5054541;28;20962;-80
2021/07/16 05:52:24;;;;;;;5.57;4.40;;;18.90;78.40;;;;;;5051282;28;20439;-80
2021/07/16 05:54:52;;;;;;;5.03;4.10;;;19.00;99.90;;;;;;5042558;28;20452;-80
2021/07/16 05:57:21;;;;;;;4.27;3.87;;;19.00;79.00;;;;;;5048647;28;21052;-81
2021/07/16 05:59:50;;;;;;;5.57;4.43;;;19.00;99.90;;;;;;5046210;28;20441;-80
2021/07/16 06:02:19;;;;;;;5.00;4.17;;;19.10;1.00;;;;;;5041445;28;20480;-81
2021/07/16 06:04:48;;;;;;;6.07;3.70;;;19.10;1.00;;;;;;5046930;28;20554;-80
2021/07/16 06:07:16;;;;;;;3.33;3.03;;;19.10;79.00;;;;;;5050806;28;20834;-80
2021/07/16 06:09:45;;;;;;;5.47;4.37;;;19.20;8.20;;;;;;5061176;28;20448;-82
2021/07/16 06:12:13;;;;;;;9.10;3.93;;;19.20;79.50;;;;;;5046972;28;20444;-80
2021/07/16 06:14:41;;;;;;;6.50;4.33;;;19.10;99.90;;;;;;5042943;28;20447;-80
2021/07/16 06:17:11;;;;;;;7.87;4.97;;;19.20;99.90;;;;;;5045480;28;20517;-79
2021/07/16 06:19:39;;;;;;;4.57;4.13;;;19.20;99.90;;;;;;5052779;28;20471;-79
2021/07/16 06:22:07;;;;;;;4.93;4.43;;;19.20;99.90;;;;;;5041840;28;21052;-80
2021/07/16 06:24:35;;;;;;;5.03;4.63;;;19.20;99.90;;;;;;5047267;28;20460;-80
2021/07/16 06:27:04;;;;;;;5.40;4.67;;;19.30;99.90;;;;;;5051534;28;20847;-82
2021/07/16 06:29:32;;;;;;;4.90;4.43;;;19.30;99.90;;;;;;5051396;28;20460;-80
2021/07/16 06:32:01;;;;;;;6.30;5.13;;;19.30;99.90;;;;;;5045761;28;20453;-82
2021/07/16 06:34:32;;;;;;;4.57;4.13;;;19.30;99.90;;;;;;5051983;28;20812;-80
2021/07/16 06:37:00;;;;;;;5.20;4.13;;;19.30;99.90;;;;;;5044616;28;20546;-80
2021/07/16 06:39:28;;;;;;;4.80;4.37;;;19.30;99.90;;;;;;5044459;28;20460;-80
2021/07/16 06:41:56;;;;;;;7.17;5.47;;;19.30;99.90;;;;;;5033556;28;20944;-80
2021/07/16 06:44:25;;;;;;;6.63;4.90;;;19.40;99.90;;;;;;5042510;28;20483;-81
2021/07/16 06:46:53;;;;;;;4.43;3.80;;;19.40;99.90;;;;;;5042431;28;20518;-81
2021/07/16 06:49:26;;;;;;;4.93;4.50;;;19.40;99.90;;;;;;5048204;28;20456;-80
2021/07/16 06:51:56;;;;;;;4.57;4.20;;;19.50;99.90;;;;;;5036796;28;20463;-80
2021/07/16 06:54:25;;;;;;;5.00;4.50;;;19.50;99.90;;;;;;5037177;28;20949;-80
2021/07/16 06:56:53;;;;;;;4.87;4.43;;;19.60;99.90;;;;;;5050610;28;20443;-79
2021/07/16 06:59:22;;;;;;;5.27;4.77;;;19.50;99.90;;;;;;5045212;28;20963;-80
2021/07/16 07:01:51;;;;;;;6.00;4.93;;;19.50;99.90;;;;;;5048031;28;20518;-79
2021/07/16 07:04:20;;;;;;;5.27;4.87;;;19.50;99.90;;;;;;5045429;28;20471;-82
2021/07/16 07:06:48;;;;;;;3.60;3.30;;;19.60;99.90;;;;;;5052556;28;20475;-81
2021/07/16 07:09:19;;;;;;;3.43;3.20;;;19.60;99.90;;;;;;5049649;28;21041;-80
2021/07/16 07:11:47;;;;;;;3.60;3.40;;;19.70;99.90;;;;;;5045613;28;20460;-80
2021/07/16 07:14:15;;;;;;;4.13;3.83;;;19.70;79.20;;;;;;5050000;28;20894;-79
2021/07/16 07:16:43;;;;;;;4.83;4.40;;;19.80;1.00;;;;;;5042737;28;20871;-79
2021/07/16 07:19:11;;;;;;;3.97;3.57;;;19.70;1.00;;;;;;5047833;28;20890;-79
2021/07/16 07:21:39;;;;;;;4.10;3.80;;;19.80;1.00;;;;;;5049537;28;20864;-80
2021/07/16 07:24:07;;;;;;;5.10;4.50;;;19.80;1.00;;;;;;5043610;28;20453;-80
2021/07/16 07:26:37;;;;;;;3.80;3.50;;;19.80;99.90;;;;;;5048837;28;20986;-80
2021/07/16 07:29:05;;;;;;;5.13;4.73;;;19.90;99.90;;;;;;5077054;22;20499;-81
2021/07/16 07:31:33;;;;;;;4.37;4.07;;;20.00;99.90;;;;;;5049290;28;20493;-79
2021/07/16 07:34:02;;;;;;;3.90;3.70;;;20.00;1.00;;;;;;5068686;28;20449;-79
2021/07/16 07:36:30;;;;;;;3.80;3.60;;;20.10;1.00;;;;;;5072428;28;20454;-78
2021/07/16 07:38:58;;;;;;;3.10;2.90;;;20.20;1.00;;;;;;5050396;28;20459;-79
2021/07/16 07:41:28;;;;;;;3.80;3.50;;;20.30;99.90;;;;;;5063727;28;20458;-77
2021/07/16 07:43:57;;;;;;;4.70;4.30;;;20.30;5.30;;;;;;5051647;28;20467;-76
2021/07/16 07:46:26;;;;;;;4.27;3.87;;;20.30;99.90;;;;;;5039126;28;20516;-78
2021/07/16 07:48:54;;;;;;;4.40;4.00;;;20.40;1.00;;;;;;5057836;28;20477;-79
2021/07/16 07:51:22;;;;;;;4.93;3.80;;;20.40;1.00;;;;;;5045180;28;20522;-77
2021/07/16 07:53:50;;;;;;;4.37;4.07;;;20.30;99.90;;;;;;5058311;28;20455;-79
2021/07/16 07:56:30;;;;;;;3.57;3.37;;;20.30;1.00;;;;;;5044963;28;20924;-78
2021/07/16 07:59:00;;;;;;;5.03;3.73;;;20.30;1.00;;;;;;5042415;28;20832;-78
2021/07/16 08:01:32;;;;;;;4.10;3.80;;;20.40;99.90;;;;;;5053869;28;20454;-80
2021/07/16 08:04:01;;;;;;;3.70;3.50;;;20.40;47.80;;;;;;5048222;28;21069;-77
2021/07/16 08:06:29;;;;;;;4.10;3.80;;;20.50;99.90;;;;;;5059210;28;20463;-77
2021/07/16 08:08:57;;;;;;;4.17;3.87;;;20.50;99.90;;;;;;5055692;28;21047;-78
2021/07/16 08:11:26;;;;;;;3.37;3.17;;;20.50;99.90;;;;;;5033626;28;20803;-78
2021/07/16 08:13:54;;;;;;;3.47;3.30;;;20.50;99.90;;;;;;5043147;28;20864;-79
2021/07/16 08:16:24;;;;;;;3.93;2.83;;;20.60;99.90;;;;;;5042415;28;20455;-81
2021/07/16 08:18:53;;;;;;;4.00;2.60;;;20.60;97.00;;;;;;5060638;28;20472;-81
2021/07/16 08:21:21;;;;;;;2.60;2.40;;;20.80;1.00;;;;;;5044116;28;20450;-79
2021/07/16 08:23:51;;;;;;;3.97;3.60;;;20.90;1.00;;;;;;5032519;28;20477;-80
2021/07/16 08:26:19;;;;;;;4.27;2.93;;;21.00;99.90;;;;;;5039541;28;20449;-79
2021/07/16 08:28:52;;;;;;;2.77;2.57;;;21.00;99.90;;;;;;5050276;28;20559;-80
2021/07/16 08:31:20;;;;;;;4.07;2.77;;;21.10;79.50;;;;;;5053674;28;20526;-81
2021/07/16 08:33:50;;;;;;;2.67;2.47;;;21.20;99.90;;;;;;5030032;28;20439;-79
2021/07/16 08:36:18;;;;;;;4.30;2.87;;;21.20;1.00;;;;;;5054033;28;20452;-80
2021/07/16 08:38:46;;;;;;;3.17;2.97;;;21.20;1.00;;;;;;5049105;28;20508;-79
2021/07/16 08:41:15;;;;;;;2.93;2.73;;;21.30;99.90;;;;;;5048840;28;20722;-80
2021/07/16 08:43:45;;;;;;;3.10;2.83;;;21.30;1.00;;;;;;5053138;28;20475;-80
2021/07/16 08:46:14;;;;;;;2.87;2.67;;;21.30;99.90;;;;;;5057899;28;20982;-80
2021/07/16 08:48:42;;;;;;;2.77;2.30;;;21.30;1.00;;;;;;5027766;28;20448;-78
2021/07/16 08:51:12;;;;;;;2.20;2.10;;;21.30;1.00;;;;;;5063206;28;20457;-79
2021/07/16 08:53:40;;;;;;;3.10;2.77;;;21.40;1.00;;;;;;5026559;28;20813;-79
2021/07/16 08:56:09;;;;;;;3.00;2.80;;;21.40;99.90;;;;;;5045835;28;21032;-80
2021/07/16 08:58:38;;;;;;;2.50;2.40;;;21.40;31.60;;;;;;5034995;28;20446;-81
2021/07/16 09:01:06;;;;;;;2.83;2.63;;;21.40;99.90;;;;;;5032602;28;20454;-81
2021/07/16 09:03:36;;;;;;;2.70;2.50;;;21.30;99.90;;;;;;5053516;28;20564;-79
2021/07/16 09:06:06;;;;;;;2.97;2.60;;;21.20;1.00;;;;;;5047560;28;20514;-82
2021/07/16 09:08:36;;;;;;;2.63;2.50;;;21.20;99.90;;;;;;5048999;28;20447;-79
2021/07/16 09:11:04;;;;;;;2.90;2.13;;;21.20;99.90;;;;;;5032370;28;20573;-79
2021/07/16 09:13:33;;;;;;;2.50;2.10;;;21.20;99.90;;;;;;5049844;28;20874;-79
2021/07/16 09:16:01;;;;;;;2.57;2.37;;;21.30;99.90;;;;;;5043060;28;20456;-79
2021/07/16 09:18:32;;;;;;;3.20;2.50;;;21.30;99.90;;;;;;5032647;28;20569;-80
2021/07/16 09:21:10;;;;;;;3.43;3.13;;;21.30;99.90;;;;;;5034588;28;20513;-80
2021/07/16 09:23:41;;;;;;;2.90;2.70;;;21.40;99.90;;;;;;5049076;28;20545;-84
2021/07/16 09:26:11;;;;;;;2.40;2.20;;;21.40;99.90;;;;;;5034058;28;20465;-79
2021/07/16 09:28:41;;;;;;;2.33;2.10;;;21.40;99.90;;;;;;5044270;28;20470;-79
2021/07/16 09:31:14;;;;;;;2.47;2.17;;;21.50;99.90;;;;;;5033639;28;20444;-79
2021/07/16 09:33:44;;;;;;;2.67;2.13;;;21.70;99.90;;;;;;5049139;28;20514;-78
2021/07/16 09:36:13;;;;;;;2.33;2.20;;;21.70;99.90;;;;;;5034839;28;20498;-78
2021/07/16 09:38:50;;;;;;;2.27;2.10;;;21.80;99.90;;;;;;5058955;28;20993;-78
2021/07/16 09:41:19;;;;;;;2.30;2.10;;;21.90;99.90;;;;;;5062061;28;20465;-80
2021/07/16 09:43:51;;;;;;;1.80;1.70;;;21.90;1.00;;;;;;5060443;28;20478;-79
2021/07/16 09:46:19;;;;;;;3.43;2.33;;;22.00;99.90;;;;;;5048231;28;20458;-79
2021/07/16 09:48:47;;;;;;;2.30;2.10;;;22.00;19.60;;;;;;5049918;28;20553;-79
2021/07/16 09:51:18;;;;;;;2.90;2.70;;;22.00;59.20;;;;;;5040848;28;20461;-78
2021/07/16 09:53:50;;;;;;;3.03;2.00;;;22.10;1.00;;;;;;5061281;28;20547;-78
2021/07/16 09:56:20;;;;;;;2.07;1.97;;;22.10;1.00;;;;;;5055113;28;20451;-79
2021/07/16 09:58:50;;;;;;;2.47;1.67;;;22.10;1.00;;;;;;5053429;28;20450;-79
2021/07/16 10:01:18;;;;;;;1.70;1.60;;;22.20;1.00;;;;;;5054015;28;20504;-79
2021/07/16 10:03:48;;;;;;;1.80;1.70;;;22.30;1.00;;;;;;5052245;28;20459;-79
2021/07/16 10:06:16;;;;;;;1.70;1.60;;;22.30;99.90;;;;;;5051413;28;20509;-78
2021/07/16 10:08:44;;;;;;;1.83;1.73;;;22.30;99.90;;;;;;5037768;28;20450;-79
2021/07/16 10:11:19;;;;;;;1.93;1.83;;;22.30;99.90;;;;;;5051458;28;20452;-77
2021/07/16 10:13:50;;;;;;;1.50;1.40;;;22.30;99.90;;;;;;5052430;28;20447;-79
2021/07/16 10:16:19;;;;;;;41.53;20.43;;;22.30;99.90;;;;;;5054396;28;20800;-79
2021/07/16 10:18:48;;;;;;;5.20;3.50;;;22.30;99.90;;;;;;5047882;28;20466;-79
2021/07/16 10:21:16;;;;;;;2.03;1.93;;;22.30;99.90;;;;;;5036810;28;20482;-80
2021/07/16 10:23:44;;;;;;;1.50;1.40;;;22.20;99.90;;;;;;5043034;28;20467;-82
2021/07/16 10:26:15;;;;;;;1.40;1.30;;;22.20;99.90;;;;;;5049530;28;20476;-80
2021/07/16 10:28:45;;;;;;;1.60;1.50;;;22.20;99.90;;;;;;5054309;28;21036;-76
2021/07/16 10:31:42;;;;;;;3.27;2.80;;;22.20;99.90;;;;;;5050139;28;20508;-79
2021/07/16 10:34:33;;;;;;;1.37;1.27;;;22.30;99.90;;;;;;5020164;28;20551;-80
2021/07/16 10:37:04;;;;;;;1.23;1.13;;;22.40;99.90;;;;;;5040196;28;20523;-80
2021/07/16 10:39:56;;;;;;;1.40;1.30;;;22.50;99.90;;;;;;5047229;28;20970;-79
2021/07/16 10:42:44;;;;;;;1.40;1.20;;;22.50;93.30;;;;;;5023664;28;20517;-79
2021/07/16 10:45:13;;;;;;;1.27;1.17;;;22.50;95.50;;;;;;5052387;28;20479;-79
2021/07/16 10:47:43;;;;;;;1.60;1.50;;;22.50;91.40;;;;;;5020709;28;20915;-82
2021/07/16 10:50:14;;;;;;;1.00;1.00;;;22.60;38.70;;;;;;5048875;28;20471;-77
2021/07/16 10:52:43;;;;;;;1.20;1.20;;;22.60;8.30;;;;;;5058737;28;20451;-76
2021/07/16 10:55:12;;;;;;;1.50;1.40;;;22.60;99.90;;;;;;5047721;28;21170;-77
2021/07/16 10:57:43;;;;;;;1.60;1.50;;;22.70;99.90;;;;;;5051779;28;20497;-78
2021/07/16 11:00:14;;;;;;;3.17;1.90;;;22.70;98.80;;;;;;5051183;28;20467;-78
2021/07/16 11:02:47;;;;;;;1.27;1.27;;;22.70;99.90;;;;;;5067976;28;20438;-75
2021/07/16 11:05:50;;;;;;;1.20;1.10;;;22.70;1.00;;;;;;5058663;28;20507;-80
2021/07/16 11:08:58;;;;;;;1.10;1.10;;;22.60;1.00;;;;;;5040169;28;20447;-78
2021/07/16 11:11:37;;;;;;;1.30;1.20;;;22.60;1.00;;;;;;5064118;28;20455;-77
2021/07/16 11:14:20;;;;;;;1.53;1.33;;;22.80;7.00;;;;;;5051641;28;20448;-79
2021/07/16 11:16:49;;;;;;;0.93;0.93;;;22.90;1.00;;;;;;5054193;28;21179;-77
2021/07/16 11:19:26;;;;;;;1.40;1.30;;;23.00;1.00;;;;;;5070316;28;20486;-76
2021/07/16 11:21:59;;;;;;;1.40;1.30;;;23.10;1.00;;;;;;5050097;28;20455;-77
2021/07/16 11:24:31;;;;;;;1.50;1.40;;;23.10;1.00;;;;;;5052293;28;20451;-78
2021/07/16 11:27:02;;;;;;;2.20;1.47;;;23.10;1.00;;;;;;5029360;28;20444;-78
2021/07/16 11:29:35;;;;;;;1.30;1.20;;;23.10;1.00;;;;;;5052409;28;20557;-78
2021/07/16 11:32:12;;;;;;;1.60;1.30;;;23.20;1.00;;;;;;5027382;28;20468;-76
2021/07/16 11:34:48;;;;;;;1.70;1.60;;;23.30;1.00;;;;;;5032425;28;20444;-80
2021/07/16 11:37:28;;;;;;;1.37;1.23;;;23.30;1.00;;;;;;5058451;28;20444;-77
2021/07/16 11:40:02;;;;;;;2.40;1.33;;;23.30;1.00;;;;;;5030895;28;20526;-77
2021/07/16 11:42:32;;;;;;;1.30;1.20;;;23.30;1.00;;;;;;5050565;28;20509;-80
2021/07/16 11:45:02;;;;;;;1.60;1.50;;;23.30;1.00;;;;;;5054001;28;20532;-78
2021/07/16 11:47:32;;;;;;;1.30;1.20;;;23.30;1.00;;;;;;5051830;28;20447;-79
2021/07/16 11:50:01;;;;;;;1.40;1.30;;;23.30;1.00;;;;;;5036716;28;20459;-76
2021/07/16 11:52:31;;;;;;;1.57;1.33;;;23.30;1.00;;;;;;5041207;28;20447;-77
2021/07/16 11:55:11;;;;;;;2.30;1.23;;;23.40;1.00;;;;;;5051835;28;20456;-77
2021/07/16 11:57:51;;;;;;;1.83;1.73;;;23.50;1.00;;;;;;5065692;28;20858;-78
2021/07/16 12:00:22;;;;;;;1.30;1.20;;;23.50;1.00;;;;;;5051340;28;20480;-77
2021/07/16 12:02:51;;;;;;;1.50;1.40;;;23.50;1.00;;;;;;5070147;28;20557;-77
2021/07/16 12:05:22;;;;;;;1.30;1.20;;;23.60;1.00;;;;;;5060408;28;20460;-79
2021/07/16 12:07:50;;;;;;;1.30;1.20;;;23.50;1.00;;;;;;5066012;28;20463;-77
2021/07/16 12:10:20;;;;;;;3.33;1.73;;;23.60;1.00;;;;;;5058452;28;20528;-77
2021/07/16 12:12:49;;;;;;;1.10;1.10;;;23.50;1.00;;;;;;5059365;28;20442;-78
2021/07/16 12:15:19;;;;;;;1.00;1.00;;;23.40;1.00;;;;;;5033689;28;20537;-76
2021/07/16 12:17:53;;;;;;;1.63;1.53;;;23.40;1.00;;;;;;5062657;28;20849;-78
2021/07/16 12:20:25;;;;;;;1.10;1.10;;;23.30;1.00;;;;;;5050928;28;20475;-78
2021/07/16 12:22:53;;;;;;;1.10;1.10;;;23.20;1.00;;;;;;5051804;28;20521;-77
2021/07/16 12:25:22;;;;;;;1.83;1.30;;;23.20;1.00;;;;;;5050074;28;20497;-77
2021/07/16 12:28:04;;;;;;;1.20;1.10;;;23.20;1.00;;;;;;5066174;28;20511;-78
2021/07/16 12:30:33;;;;;;;0.90;0.90;;;23.10;1.00;;;;;;5059307;28;20510;-78
2021/07/16 12:33:05;;;;;;;1.00;1.00;;;23.10;1.00;;;;;;5050774;28;20971;-77
2021/07/16 12:35:36;;;;;;;2.10;1.07;;;23.20;1.00;;;;;;5018861;28;20482;-77
2021/07/16 12:38:07;;;;;;;1.00;1.00;;;23.20;1.00;;;;;;5038722;28;20447;-79
2021/07/16 12:40:37;;;;;;;1.13;1.00;;;23.20;1.00;;;;;;5058980;28;20479;-77
2021/07/16 12:43:10;;;;;;;1.10;1.00;;;23.20;1.00;;;;;;5048367;28;21015;-75
2021/07/16 12:45:48;;;;;;;0.90;0.90;;;23.10;1.00;;;;;;5050986;28;20529;-78
2021/07/16 12:48:29;;;;;;;0.80;0.80;;;23.10;1.00;;;;;;5051310;28;20963;-76
2021/07/16 12:51:08;;;;;;;0.97;0.97;;;23.10;1.00;;;;;;5055734;28;20453;-77
2021/07/16 12:53:38;;;;;;;1.00;0.90;;;23.20;1.00;;;;;;5060064;28;20451;-80
2021/07/16 12:56:21;;;;;;;0.90;0.90;;;23.20;1.00;;;;;;5052625;28;20499;-76
2021/07/16 12:58:51;;;;;;;1.30;0.93;;;23.30;1.00;;;;;;5070214;28;20470;-79
2021/07/16 13:01:27;;;;;;;1.00;1.00;;;23.30;1.00;;;;;;5058371;28;20942;-79
2021/07/16 13:03:57;;;;;;;0.90;0.90;;;23.30;1.00;;;;;;5050542;28;20447;-81
2021/07/16 13:06:28;;;;;;;1.00;1.00;;;23.30;1.00;;;;;;5033082;28;21041;-80